createdAt,value
2017-12-01T00:00:16.718Z,6.03
2017-12-01T00:02:48.814Z,6.85
2017-12-01T00:05:19.954Z,7.37
2017-12-01T00:07:51.503Z,5.95
2017-12-01T00:10:22.959Z,6.82
2017-12-01T00:12:54.506Z,5.82
2017-12-01T00:15:28.415Z,4.37
2017-12-01T00:18:00.165Z,4.90
2017-12-01T00:20:34.012Z,5.10
2017-12-01T00:23:07.165Z,4.50
2017-12-01T00:25:38.814Z,5.12
2017-12-01T00:28:12.315Z,5.45
2017-12-01T00:30:46.941Z,4.32
2017-12-01T00:33:18.703Z,3.90
2017-12-01T00:35:57.115Z,3.90
2017-12-01T00:38:28.735Z,4.53
2017-12-01T00:40:59.729Z,5.40
2017-12-01T00:43:32.785Z,5.60
2017-12-01T00:46:08.946Z,5.62
2017-12-01T00:48:40.905Z,6.25
2017-12-01T00:51:12.724Z,5.60
2017-12-01T00:53:45.655Z,4.60
2017-12-01T00:56:18.016Z,7.47
2017-12-01T00:58:49.605Z,5.05
2017-12-01T01:01:22.254Z,5.53
2017-12-01T01:03:55.544Z,6.03
2017-12-01T01:06:27.305Z,5.78
2017-12-01T01:09:01.324Z,5.55
2017-12-01T01:11:32.455Z,6.47
2017-12-01T01:14:07.494Z,6.85
2017-12-01T01:16:46.114Z,7.20
2017-12-01T01:19:17.974Z,6.20
2017-12-01T01:21:53.725Z,7.80
2017-12-01T01:24:26.224Z,5.85
2017-12-01T01:27:01.945Z,6.80
2017-12-01T01:29:33.094Z,6.00
2017-12-01T01:32:07.734Z,6.55
2017-12-01T01:34:40.725Z,5.90
2017-12-01T01:37:13.075Z,6.05
2017-12-01T01:39:45.544Z,7.50
2017-12-01T01:42:17.304Z,8.02
2017-12-01T01:44:53.054Z,7.72
2017-12-01T01:47:33.775Z,8.85
2017-12-01T01:50:04.964Z,6.82
2017-12-01T01:52:36.204Z,6.55
2017-12-01T01:55:10.524Z,5.22
2017-12-01T01:57:44.025Z,5.85
2017-12-01T02:00:15.735Z,10.20
2017-12-01T02:02:48.864Z,5.18
2017-12-01T02:05:24.405Z,5.25
2017-12-01T02:07:56.474Z,5.20
2017-12-01T02:10:29.565Z,5.78
2017-12-01T02:13:08.076Z,5.90
2017-12-01T02:15:44.165Z,5.55
2017-12-01T02:18:15.715Z,6.43
2017-12-01T02:20:47.135Z,6.53
2017-12-01T02:23:23.805Z,7.50
2017-12-01T02:25:58.724Z,6.20
2017-12-01T02:28:31.245Z,6.15
2017-12-01T02:31:04.796Z,5.65
2017-12-01T02:33:41.385Z,6.35
2017-12-01T02:36:12.824Z,7.40
2017-12-01T02:38:44.694Z,8.05
2017-12-01T02:41:16.735Z,6.37
2017-12-01T02:43:51.764Z,6.00
2017-12-01T02:46:28.165Z,4.90
2017-12-01T02:49:00.454Z,5.30
2017-12-01T02:51:32.396Z,7.40
2017-12-01T02:54:05.474Z,5.43
2017-12-01T02:56:36.794Z,5.00
2017-12-01T02:59:10.945Z,5.43
2017-12-01T03:01:49.145Z,4.90
2017-12-01T03:04:21.008Z,4.25
2017-12-01T03:06:59.214Z,5.15
2017-12-01T03:09:34.045Z,5.25
2017-12-01T03:12:06.415Z,5.32
2017-12-01T03:14:39.735Z,4.55
2017-12-01T03:17:14.834Z,5.60
2017-12-01T03:19:50.185Z,5.82
2017-12-01T03:22:24.804Z,6.35
2017-12-01T03:24:57.387Z,4.55
2017-12-01T03:27:29.444Z,4.90
2017-12-01T03:30:01.206Z,4.60
2017-12-01T03:32:33.675Z,4.90
2017-12-01T03:35:07.175Z,4.97
2017-12-01T03:37:43.224Z,6.95
2017-12-01T03:40:16.965Z,6.35
2017-12-01T03:42:51.864Z,4.47
2017-12-01T03:45:24.335Z,5.60
2017-12-01T03:47:58.246Z,5.68
2017-12-01T03:50:32.757Z,6.53
2017-12-01T03:53:06.277Z,7.12
2017-12-01T03:55:39.054Z,4.97
2017-12-01T03:58:10.545Z,5.28
2017-12-01T04:00:45.745Z,4.68
2017-12-01T04:03:23.535Z,4.40
2017-12-01T04:05:57.646Z,4.50
2017-12-01T04:08:34.015Z,3.42
2017-12-01T04:11:06.493Z,3.37
2017-12-01T04:13:46.645Z,2.95
2017-12-01T04:16:19.014Z,3.40
2017-12-01T04:18:50.965Z,3.72
2017-12-01T04:21:22.805Z,2.60
2017-12-01T04:23:56.744Z,3.10
2017-12-01T04:26:29.758Z,4.10
2017-12-01T04:29:02.765Z,2.85
2017-12-01T04:31:33.985Z,3.65
2017-12-01T04:34:07.355Z,2.10
2017-12-01T04:36:42.995Z,2.10
2017-12-01T04:39:14.774Z,1.95
2017-12-01T04:41:49.744Z,2.45
2017-12-01T04:44:21.575Z,2.95
2017-12-01T04:46:55.864Z,1.80
2017-12-01T04:49:28.326Z,2.80
2017-12-01T04:52:01.725Z,3.33
2017-12-01T04:54:35.534Z,3.00
2017-12-01T04:57:06.884Z,2.60
2017-12-01T04:59:40.985Z,3.35
2017-12-01T05:02:17.356Z,2.92
2017-12-01T05:04:49.117Z,2.75
2017-12-01T05:07:21.754Z,3.60
2017-12-01T05:09:53.655Z,4.10
2017-12-01T05:12:26.025Z,4.18
2017-12-01T05:14:57.685Z,6.60
2017-12-01T05:17:29.954Z,6.55
2017-12-01T05:20:05.086Z,6.82
2017-12-01T05:22:40.144Z,3.85
2017-12-01T05:25:11.884Z,4.87
2017-12-01T05:27:46.094Z,6.12
2017-12-01T05:30:25.224Z,5.75
2017-12-01T05:32:58.804Z,5.50
2017-12-01T05:35:34.754Z,4.85
2017-12-01T05:38:06.744Z,7.80
2017-12-01T05:40:39.044Z,4.85
2017-12-01T05:43:13.655Z,5.75
2017-12-01T05:45:49.175Z,7.05
2017-12-01T05:48:21.444Z,4.50
2017-12-01T05:50:53.615Z,8.95
2017-12-01T05:53:25.805Z,5.62
2017-12-01T05:55:59.185Z,6.43
2017-12-01T05:58:42.634Z,5.47
2017-12-01T06:01:13.645Z,4.93
2017-12-01T06:03:47.147Z,8.35
2017-12-01T06:06:19.415Z,6.30
2017-12-01T06:08:50.694Z,4.35
2017-12-01T06:11:22.445Z,6.25
2017-12-01T06:13:57.345Z,5.30
2017-12-01T06:16:28.825Z,4.05
2017-12-01T06:19:00.887Z,5.65
2017-12-01T06:21:33.364Z,14.45
2017-12-01T06:24:05.301Z,4.90
2017-12-01T06:26:37.155Z,5.55
2017-12-01T06:29:09.125Z,6.78
2017-12-01T06:31:46.944Z,8.40
2017-12-01T06:34:21.824Z,7.93
2017-12-01T06:36:57.904Z,6.45
2017-12-01T06:39:29.765Z,12.00
2017-12-01T06:42:01.115Z,17.08
2017-12-01T06:44:33.385Z,11.65
2017-12-01T06:47:04.765Z,14.98
2017-12-01T06:49:36.175Z,22.30
2017-12-01T06:52:09.975Z,7.97
2017-12-01T06:54:49.765Z,8.77
2017-12-01T06:57:24.154Z,6.70
2017-12-01T06:59:55.700Z,9.55
2017-12-01T07:02:28.885Z,5.53
2017-12-01T07:05:00.035Z,9.27
2017-12-01T07:07:34.694Z,13.02
2017-12-01T07:10:06.135Z,10.85
2017-12-01T07:12:41.816Z,6.45
2017-12-01T07:15:13.136Z,4.35
2017-12-01T07:17:47.135Z,5.05
2017-12-01T07:20:19.765Z,7.53
2017-12-01T07:22:51.815Z,5.53
2017-12-01T07:25:23.754Z,5.80
2017-12-01T07:27:55.755Z,6.82
2017-12-01T07:30:27.734Z,13.13
2017-12-01T07:32:58.495Z,5.85
2017-12-01T07:35:29.914Z,4.78
2017-12-01T07:38:01.665Z,6.05
2017-12-01T07:40:32.503Z,9.18
2017-12-01T07:43:06.725Z,7.72
2017-12-01T07:45:39.775Z,5.82
2017-12-01T07:48:11.154Z,4.65
2017-12-01T07:50:45.473Z,6.40
2017-12-01T07:53:17.729Z,20.98
2017-12-01T07:55:49.725Z,7.05
2017-12-01T07:58:22.579Z,5.85
2017-12-01T08:00:54.795Z,7.00
2017-12-01T08:03:33.605Z,4.85
2017-12-01T08:06:06.065Z,5.45
2017-12-01T08:08:38.565Z,5.90
2017-12-01T08:11:10.905Z,6.37
2017-12-01T08:13:46.174Z,5.47
2017-12-01T08:16:29.154Z,6.53
2017-12-01T08:19:03.914Z,6.30
2017-12-01T08:21:46.594Z,5.85
2017-12-01T08:24:29.525Z,7.82
2017-12-01T08:27:03.324Z,6.82
2017-12-01T08:29:34.917Z,6.93
2017-12-01T08:32:05.714Z,10.68
2017-12-01T08:34:43.814Z,5.47
2017-12-01T08:37:16.624Z,5.70
2017-12-01T08:39:49.765Z,6.93
2017-12-01T08:42:22.734Z,7.07
2017-12-01T08:44:53.006Z,8.77
2017-12-01T08:47:25.195Z,8.48
2017-12-01T08:50:02.354Z,6.70
2017-12-01T08:52:39.320Z,5.78
2017-12-01T08:55:12.094Z,4.65
2017-12-01T08:57:43.754Z,6.20
2017-12-01T09:00:14.484Z,7.75
2017-12-01T09:02:46.714Z,6.82
2017-12-01T09:05:18.655Z,7.28
2017-12-01T09:07:49.075Z,5.80
2017-12-01T09:10:23.374Z,6.82
2017-12-01T09:13:00.045Z,8.13
2017-12-01T09:15:32.645Z,9.13
2017-12-01T09:18:05.785Z,6.25
2017-12-01T09:20:38.295Z,5.15
2017-12-01T09:23:23.845Z,5.72
2017-12-01T09:25:55.404Z,5.70
2017-12-01T09:28:27.474Z,8.48
2017-12-01T09:30:58.825Z,7.45
2017-12-01T09:33:32.104Z,9.10
2017-12-01T09:36:03.045Z,9.32
2017-12-01T09:38:37.874Z,7.30
2017-12-01T09:41:11.784Z,6.50
2017-12-01T09:43:44.474Z,6.55
2017-12-01T09:46:16.024Z,13.75
2017-12-01T09:48:47.474Z,7.40
2017-12-01T09:51:19.265Z,7.90
2017-12-01T09:53:51.705Z,5.30
2017-12-01T09:56:23.664Z,5.80
2017-12-01T09:58:56.754Z,8.27
2017-12-01T10:01:30.954Z,6.10
2017-12-01T10:04:03.024Z,9.48
2017-12-01T10:06:42.845Z,9.80
2017-12-01T10:09:14.324Z,11.27
2017-12-01T10:11:46.367Z,10.07
2017-12-01T10:14:18.475Z,10.40
2017-12-01T10:16:50.926Z,20.88
2017-12-01T10:19:23.185Z,10.40
2017-12-01T10:21:55.185Z,12.63
2017-12-01T10:24:29.815Z,11.05
2017-12-01T10:27:00.614Z,12.30
2017-12-01T10:29:35.855Z,13.20
2017-12-01T10:32:07.225Z,28.08
2017-12-01T10:34:39.274Z,15.32
2017-12-01T10:37:11.824Z,11.30
2017-12-01T10:39:45.145Z,13.55
2017-12-01T10:42:17.245Z,13.82
2017-12-01T10:44:49.424Z,10.50
2017-12-01T10:47:20.795Z,10.02
2017-12-01T10:49:54.935Z,10.75
2017-12-01T10:52:26.384Z,9.80
2017-12-01T10:55:01.116Z,11.65
2017-12-01T10:57:31.335Z,9.57
2017-12-01T11:00:05.645Z,9.70
2017-12-01T11:02:37.915Z,12.55
2017-12-01T11:05:16.785Z,10.15
2017-12-01T11:07:50.745Z,12.70
2017-12-01T11:10:22.875Z,9.35
2017-12-01T11:12:54.705Z,10.45
2017-12-01T11:15:28.465Z,12.35
2017-12-01T11:17:59.785Z,10.45
2017-12-01T11:20:35.455Z,11.32
2017-12-01T11:23:06.805Z,12.45
2017-12-01T11:25:39.275Z,11.98
2017-12-01T11:28:09.804Z,12.05
2017-12-01T11:30:47.415Z,9.10
2017-12-01T11:33:18.765Z,24.90
2017-12-01T11:35:50.125Z,7.50
2017-12-01T11:38:22.855Z,8.20
2017-12-01T11:40:54.219Z,9.00
2017-12-01T11:43:25.464Z,6.90
2017-12-01T11:46:03.874Z,7.40
2017-12-01T11:48:35.730Z,9.40
2017-12-01T11:51:07.835Z,7.57
2017-12-01T11:53:44.657Z,9.27
2017-12-01T11:56:16.854Z,8.95
2017-12-01T11:58:53.535Z,11.75
2017-12-01T12:01:28.265Z,10.02
2017-12-01T12:04:01.765Z,12.27
2017-12-01T12:06:33.205Z,9.93
2017-12-01T12:09:04.484Z,9.35
2017-12-01T12:11:48.124Z,9.75
2017-12-01T12:14:22.094Z,8.32
2017-12-01T12:16:53.835Z,8.88
2017-12-01T12:19:25.915Z,8.45
2017-12-01T12:22:00.645Z,7.82
2017-12-01T12:24:31.074Z,10.75
2017-12-01T12:27:04.675Z,7.70
2017-12-01T12:29:36.115Z,7.80
2017-12-01T12:32:12.116Z,9.25
2017-12-01T12:34:46.155Z,6.95
2017-12-01T12:37:17.664Z,8.20
2017-12-01T12:39:58.805Z,9.88
2017-12-01T12:42:30.665Z,8.27
2017-12-01T12:45:05.185Z,8.85
2017-12-01T12:47:38.095Z,7.45
2017-12-01T12:50:08.904Z,7.80
2017-12-01T12:52:40.674Z,10.85
2017-12-01T12:55:15.204Z,7.72
2017-12-01T12:57:46.785Z,10.27
2017-12-01T13:00:18.915Z,10.65
2017-12-01T13:02:51.595Z,6.95
2017-12-01T13:05:24.264Z,7.80
2017-12-01T13:07:56.575Z,8.27
2017-12-01T13:10:28.224Z,7.82
2017-12-01T13:12:59.984Z,6.72
2017-12-01T13:15:32.636Z,6.75
2017-12-01T13:18:04.484Z,8.82
2017-12-01T13:20:44.033Z,10.05
2017-12-01T13:23:16.333Z,6.95
2017-12-01T13:25:49.185Z,10.70
2017-12-01T13:28:21.858Z,6.75
2017-12-01T13:30:53.804Z,8.52
2017-12-01T13:33:25.995Z,9.40
2017-12-01T13:35:58.565Z,7.10
2017-12-01T13:38:33.495Z,7.95
2017-12-01T13:41:05.254Z,6.45
2017-12-01T13:43:35.574Z,7.12
2017-12-01T13:46:07.433Z,7.37
2017-12-01T13:48:41.764Z,6.53
2017-12-01T13:51:13.724Z,11.35
2017-12-01T13:53:44.534Z,6.35
2017-12-01T13:56:16.518Z,8.00
2017-12-01T13:58:48.265Z,9.20
2017-12-01T14:01:23.297Z,7.87
2017-12-01T14:03:56.085Z,10.20
2017-12-01T14:06:30.844Z,8.15
2017-12-01T14:09:04.854Z,10.73
2017-12-01T14:11:36.314Z,9.07
2017-12-01T14:14:07.933Z,8.32
2017-12-01T14:16:39.204Z,8.60
2017-12-01T14:19:11.545Z,10.93
2017-12-01T14:21:45.895Z,13.45
2017-12-01T14:24:22.123Z,13.00
2017-12-01T14:26:53.976Z,8.30
2017-12-01T14:29:26.245Z,6.78
2017-12-01T14:31:57.805Z,16.77
2017-12-01T14:34:29.485Z,9.43
2017-12-01T14:37:01.314Z,14.05
2017-12-01T14:39:32.456Z,11.45
2017-12-01T14:42:04.654Z,8.13
2017-12-01T14:44:37.615Z,17.48
2017-12-01T14:47:09.375Z,11.23
2017-12-01T14:49:40.505Z,9.85
2017-12-01T14:52:12.665Z,8.73
2017-12-01T14:54:46.824Z,10.07
2017-12-01T14:57:20.174Z,13.50
2017-12-01T14:59:51.394Z,8.70
2017-12-01T15:02:27.313Z,8.02
2017-12-01T15:05:01.173Z,13.75
2017-12-01T15:07:33.747Z,8.15
2017-12-01T15:10:04.904Z,9.23
2017-12-01T15:12:42.495Z,8.45
2017-12-01T15:15:17.723Z,11.35
2017-12-01T15:17:48.164Z,7.10
2017-12-01T15:20:21.844Z,7.45
2017-12-01T15:22:53.525Z,10.85
2017-12-01T15:25:24.555Z,9.57
2017-12-01T15:27:56.805Z,11.00
2017-12-01T15:30:29.194Z,11.38
2017-12-01T15:33:01.165Z,16.95
2017-12-01T15:35:37.834Z,9.48
2017-12-01T15:38:12.565Z,9.55
2017-12-01T15:40:46.784Z,9.02
2017-12-01T15:43:17.605Z,8.07
2017-12-01T15:45:49.715Z,9.70
2017-12-01T15:48:20.404Z,7.90
2017-12-01T15:50:53.396Z,9.35
2017-12-01T15:53:26.994Z,9.60
2017-12-01T15:56:01.845Z,9.68
2017-12-01T15:58:40.245Z,9.10
2017-12-01T16:01:11.795Z,11.15
2017-12-01T16:03:43.434Z,8.93
2017-12-01T16:06:15.515Z,11.00
2017-12-01T16:08:47.515Z,9.57
2017-12-01T16:11:21.825Z,10.63
2017-12-01T16:13:54.865Z,20.55
2017-12-01T16:16:26.255Z,10.68
2017-12-01T16:18:58.284Z,11.12
2017-12-01T16:21:33.835Z,9.52
2017-12-01T16:24:06.204Z,11.02
2017-12-01T16:26:41.434Z,10.77
2017-12-01T16:29:13.544Z,12.75
2017-12-01T16:31:47.905Z,12.55
2017-12-01T16:34:22.385Z,14.95
2017-12-01T16:36:56.144Z,13.30
2017-12-01T16:39:28.115Z,13.32
2017-12-01T16:42:00.725Z,14.35
2017-12-01T16:44:33.714Z,16.90
2017-12-01T16:47:04.345Z,15.32
2017-12-01T16:49:36.684Z,18.70
2017-12-01T16:52:08.535Z,18.60
2017-12-01T16:54:39.721Z,16.85
2017-12-01T16:57:14.824Z,15.57
2017-12-01T16:59:46.974Z,14.95
2017-12-01T17:02:20.475Z,12.80
2017-12-01T17:04:51.825Z,13.85
2017-12-01T17:07:26.385Z,15.60
2017-12-01T17:10:00.355Z,16.60
2017-12-01T17:12:32.725Z,15.80
2017-12-01T17:15:04.807Z,14.05
2017-12-01T17:17:38.294Z,15.07
2017-12-01T17:20:10.655Z,17.08
2017-12-01T17:22:42.004Z,17.08
2017-12-01T17:25:13.794Z,22.50
2017-12-01T17:27:48.185Z,12.98
2017-12-01T17:30:22.194Z,17.42
2017-12-01T17:32:53.726Z,13.38
2017-12-01T17:35:32.707Z,18.27
2017-12-01T17:38:03.799Z,15.82
2017-12-01T17:40:34.544Z,16.87
2017-12-01T17:43:08.036Z,19.77
2017-12-01T17:45:39.495Z,16.80
2017-12-01T17:48:10.837Z,20.45
2017-12-01T17:50:44.544Z,15.20
2017-12-01T17:53:16.194Z,12.85
2017-12-01T17:55:48.307Z,12.75
2017-12-01T17:58:20.124Z,17.62
2017-12-01T18:00:51.674Z,16.83
2017-12-01T18:03:23.375Z,15.30
2017-12-01T18:05:55.815Z,14.00
2017-12-01T18:08:35.454Z,16.25
2017-12-01T18:11:06.814Z,17.33
2017-12-01T18:13:38.967Z,14.35
2017-12-01T18:16:14.844Z,14.57
2017-12-01T18:18:49.844Z,13.57
2017-12-01T18:21:20.824Z,11.95
2017-12-01T18:23:53.854Z,14.13
2017-12-01T18:26:25.538Z,14.80
2017-12-01T18:28:57.825Z,15.13
2017-12-01T18:31:33.555Z,16.20
2017-12-01T18:34:07.243Z,16.10
2017-12-01T18:36:41.164Z,18.12
2017-12-01T18:39:16.396Z,15.27
2017-12-01T18:41:47.844Z,18.37
2017-12-01T18:44:21.345Z,20.05
2017-12-01T18:46:52.735Z,14.75
2017-12-01T18:49:25.984Z,16.65
2017-12-01T18:51:57.234Z,18.05
2017-12-01T18:54:29.534Z,18.85
2017-12-01T18:57:02.074Z,17.90
2017-12-01T18:59:34.384Z,16.35
2017-12-01T19:02:06.245Z,16.83
2017-12-01T19:04:38.204Z,14.63
2017-12-01T19:07:12.174Z,15.02
2017-12-01T19:09:45.164Z,14.90
2017-12-01T19:12:18.894Z,13.95
2017-12-01T19:14:51.974Z,16.65
2017-12-01T19:17:24.323Z,12.68
2017-12-01T19:19:57.893Z,15.43
2017-12-01T19:22:29.574Z,21.65
2017-12-01T19:25:04.855Z,16.80
2017-12-01T19:27:36.975Z,24.65
2017-12-01T19:30:10.685Z,16.73
2017-12-01T19:32:44.864Z,12.25
2017-12-01T19:35:18.105Z,14.40
2017-12-01T19:37:50.704Z,14.48
2017-12-01T19:40:22.015Z,14.65
2017-12-01T19:42:53.665Z,16.52
2017-12-01T19:45:25.735Z,20.48
2017-12-01T19:47:59.834Z,19.10
2017-12-01T19:50:32.225Z,17.87
2017-12-01T19:53:03.963Z,16.92
2017-12-01T19:55:36.546Z,20.65
2017-12-01T19:58:12.296Z,18.17
2017-12-01T20:00:43.535Z,20.80
2017-12-01T20:03:15.125Z,16.62
2017-12-01T20:05:46.234Z,18.52
2017-12-01T20:08:17.805Z,15.57
2017-12-01T20:10:49.445Z,41.50
2017-12-01T20:13:21.311Z,17.23
2017-12-01T20:15:56.344Z,18.70
2017-12-01T20:18:28.505Z,16.02
2017-12-01T20:20:59.743Z,24.00
2017-12-01T20:23:31.405Z,16.55
2017-12-01T20:26:07.669Z,16.30
2017-12-01T20:28:40.135Z,16.83
2017-12-01T20:31:15.075Z,22.25
2017-12-01T20:33:48.265Z,23.85
2017-12-01T20:36:21.868Z,22.40
2017-12-01T20:38:56.685Z,21.75
2017-12-01T20:41:28.244Z,25.50
2017-12-01T20:43:59.705Z,23.00
2017-12-01T20:46:32.704Z,23.12
2017-12-01T20:49:05.145Z,23.70
2017-12-01T20:51:37.316Z,20.85
2017-12-01T20:54:09.384Z,19.95
2017-12-01T20:56:40.834Z,20.37
2017-12-01T20:59:16.297Z,20.85
2017-12-01T21:01:48.442Z,20.80
2017-12-01T21:04:22.945Z,33.60
2017-12-01T21:06:54.344Z,19.70
2017-12-01T21:09:26.575Z,20.33
2017-12-01T21:11:58.554Z,21.77
2017-12-01T21:14:29.584Z,24.65
2017-12-01T21:17:02.984Z,41.30
2017-12-01T21:19:38.005Z,23.08
2017-12-01T21:22:09.354Z,21.45
2017-12-01T21:24:41.365Z,35.03
2017-12-01T21:27:12.685Z,22.05
2017-12-01T21:29:44.724Z,21.42
2017-12-01T21:32:19.354Z,24.77
2017-12-01T21:34:57.664Z,22.33
2017-12-01T21:37:34.754Z,23.73
2017-12-01T21:40:08.864Z,25.15
2017-12-01T21:42:42.165Z,22.10
2017-12-01T21:45:14.905Z,19.73
2017-12-01T21:47:49.146Z,16.65
2017-12-01T21:50:22.914Z,16.55
2017-12-01T21:52:54.235Z,14.40
2017-12-01T21:55:29.134Z,19.80
2017-12-01T21:58:02.155Z,20.00
2017-12-01T22:00:34.525Z,22.23
2017-12-01T22:03:10.344Z,20.85
2017-12-01T22:05:45.376Z,18.45
2017-12-01T22:08:16.893Z,18.67
2017-12-01T22:10:47.953Z,19.67
2017-12-01T22:13:20.881Z,22.58
2017-12-01T22:15:53.430Z,21.37
2017-12-01T22:18:24.827Z,20.33
2017-12-01T22:21:02.990Z,24.48
2017-12-01T22:23:37.816Z,21.30
2017-12-01T22:26:09.295Z,20.48
2017-12-01T22:28:41.155Z,19.02
2017-12-01T22:31:14.624Z,13.52
2017-12-01T22:33:47.094Z,14.52
2017-12-01T22:36:19.935Z,14.02
2017-12-01T22:38:51.905Z,14.10
2017-12-01T22:41:26.935Z,12.60
2017-12-01T22:44:03.555Z,12.73
2017-12-01T22:46:35.004Z,11.32
2017-12-01T22:49:11.064Z,9.98
2017-12-01T22:51:45.174Z,10.65
2017-12-01T22:54:16.426Z,12.95
2017-12-01T22:56:52.065Z,13.05
2017-12-01T22:59:24.595Z,9.93
2017-12-01T23:01:56.704Z,11.95
2017-12-01T23:04:28.875Z,10.13
2017-12-01T23:07:01.934Z,11.82
2017-12-01T23:09:33.616Z,11.05
2017-12-01T23:12:05.915Z,11.88
2017-12-01T23:14:37.565Z,12.15
2017-12-01T23:17:09.704Z,11.15
2017-12-01T23:19:44.894Z,10.85
2017-12-01T23:22:18.024Z,11.68
2017-12-01T23:24:55.415Z,9.27
2017-12-01T23:27:27.274Z,12.82
2017-12-01T23:30:03.024Z,16.87
2017-12-01T23:32:36.900Z,12.15
2017-12-01T23:35:10.935Z,11.38
2017-12-01T23:37:44.134Z,14.68
2017-12-01T23:40:14.864Z,9.60
2017-12-01T23:42:51.785Z,10.63
2017-12-01T23:45:25.854Z,9.52
2017-12-01T23:47:57.503Z,9.65
2017-12-01T23:50:31.524Z,10.52
2017-12-01T23:53:08.595Z,10.98
2017-12-01T23:55:41.374Z,11.43
2017-12-01T23:58:14.154Z,12.02
